sensor_id;sensor_type;location;lat;lon;timestamp;pressure;altitude;pressure_sealevel;temperature;humidity
21728;BME280;11026;50.560;17.852;2022-12-07T00:01:37;99170.09;;;1.85;100.00
21728;BME280;11026;50.560;17.852;2022-12-07T00:04:11;99167.41;;;1.91;100.00
21728;BME280;11026;50.560;17.852;2022-12-07T00:06:44;99157.91;;;1.87;100.00
21728;BME280;11026;50.560;17.852;2022-12-07T00:09:14;99155.19;;;1.93;100.00
21728;BME280;11026;50.560;17.852;2022-12-07T00:11:44;99151.75;;;1.91;100.00
21728;BME280;11026;50.560;17.852;2022-12-07T00:14:14;99155.84;;;2.07;100.00
21728;BME280;11026;50.560;17.852;2022-12-07T00:16:44;99155.00;;;2.07;100.00
21728;BME280;11026;50.560;17.852;2022-12-07T00:19:13;99161.22;;;1.98;100.00
21728;BME280;11026;50.560;17.852;2022-12-07T00:21:42;99158.00;;;1.78;100.00
21728;BME280;11026;50.560;17.852;2022-12-07T00:24:11;99158.38;;;2.12;100.00
21728;BME280;11026;50.560;17.852;2022-12-07T00:26:41;99151.25;;;2.23;100.00
21728;BME280;11026;50.560;17.852;2022-12-07T00:29:19;99152.25;;;2.13;100.00
21728;BME280;11026;50.560;17.852;2022-12-07T00:31:48;99152.31;;;2.10;100.00
21728;BME280;11026;50.560;17.852;2022-12-07T00:34:21;99150.94;;;1.86;100.00
21728;BME280;11026;50.560;17.852;2022-12-07T00:36:50;99141.88;;;2.11;100.00
21728;BME280;11026;50.560;17.852;2022-12-07T00:39:17;99147.53;;;1.81;100.00
21728;BME280;11026;50.560;17.852;2022-12-07T00:41:44;99149.16;;;1.91;100.00
21728;BME280;11026;50.560;17.852;2022-12-07T00:44:12;99151.03;;;1.80;100.00
21728;BME280;11026;50.560;17.852;2022-12-07T00:46:40;99144.03;;;1.82;100.00
21728;BME280;11026;50.560;17.852;2022-12-07T00:49:07;99143.94;;;1.91;100.00
21728;BME280;11026;50.560;17.852;2022-12-07T00:51:35;99149.38;;;1.76;100.00
21728;BME280;11026;50.560;17.852;2022-12-07T00:54:02;99144.22;;;1.69;100.00
21728;BME280;11026;50.560;17.852;2022-12-07T00:56:30;99140.66;;;1.77;100.00
21728;BME280;11026;50.560;17.852;2022-12-07T00:59:00;99148.53;;;1.72;100.00
21728;BME280;11026;50.560;17.852;2022-12-07T01:01:30;99142.31;;;1.81;100.00
21728;BME280;11026;50.560;17.852;2022-12-07T01:04:01;99132.13;;;1.67;100.00
21728;BME280;11026;50.560;17.852;2022-12-07T01:06:30;99142.50;;;1.68;100.00
21728;BME280;11026;50.560;17.852;2022-12-07T01:08:58;99141.94;;;1.48;100.00
21728;BME280;11026;50.560;17.852;2022-12-07T01:11:28;99144.66;;;1.39;100.00
21728;BME280;11026;50.560;17.852;2022-12-07T01:13:57;99141.22;;;1.37;100.00
21728;BME280;11026;50.560;17.852;2022-12-07T01:16:29;99141.44;;;1.18;100.00
21728;BME280;11026;50.560;17.852;2022-12-07T01:18:59;99141.50;;;1.15;100.00
21728;BME280;11026;50.560;17.852;2022-12-07T01:21:29;99143.25;;;1.15;100.00
21728;BME280;11026;50.560;17.852;2022-12-07T01:24:00;99140.78;;;1.01;100.00
21728;BME280;11026;50.560;17.852;2022-12-07T01:26:28;99138.28;;;0.90;100.00
21728;BME280;11026;50.560;17.852;2022-12-07T01:28:56;99134.78;;;0.94;100.00
21728;BME280;11026;50.560;17.852;2022-12-07T01:31:27;99137.13;;;1.16;100.00
21728;BME280;11026;50.560;17.852;2022-12-07T01:33:56;99140.72;;;1.07;100.00
21728;BME280;11026;50.560;17.852;2022-12-07T01:36:32;99143.22;;;1.13;100.00
21728;BME280;11026;50.560;17.852;2022-12-07T01:39:04;99136.31;;;1.12;100.00
21728;BME280;11026;50.560;17.852;2022-12-07T01:41:36;99144.00;;;1.23;100.00
21728;BME280;11026;50.560;17.852;2022-12-07T01:44:15;99125.78;;;1.18;100.00
21728;BME280;11026;50.560;17.852;2022-12-07T01:47:01;99131.06;;;1.15;100.00
21728;BME280;11026;50.560;17.852;2022-12-07T01:49:44;99125.75;;;1.23;100.00
21728;BME280;11026;50.560;17.852;2022-12-07T01:52:27;99129.25;;;1.20;100.00
21728;BME280;11026;50.560;17.852;2022-12-07T01:55:03;99124.03;;;1.20;100.00
21728;BME280;11026;50.560;17.852;2022-12-07T01:57:33;99126.06;;;0.97;100.00
21728;BME280;11026;50.560;17.852;2022-12-07T02:00:02;99124.00;;;1.23;100.00
21728;BME280;11026;50.560;17.852;2022-12-07T02:02:34;99131.09;;;1.12;100.00
21728;BME280;11026;50.560;17.852;2022-12-07T02:05:04;99133.81;;;1.03;100.00
21728;BME280;11026;50.560;17.852;2022-12-07T02:07:36;99134.50;;;1.17;100.00
21728;BME280;11026;50.560;17.852;2022-12-07T02:10:18;99130.97;;;1.21;100.00
21728;BME280;11026;50.560;17.852;2022-12-07T02:12:50;99131.03;;;1.17;100.00
21728;BME280;11026;50.560;17.852;2022-12-07T02:15:22;99132.81;;;1.13;100.00
21728;BME280;11026;50.560;17.852;2022-12-07T02:18:04;99130.38;;;0.98;100.00
21728;BME280;11026;50.560;17.852;2022-12-07T02:32:07;99134.09;;;0.80;100.00
21728;BME280;11026;50.560;17.852;2022-12-07T02:34:48;99127.72;;;1.04;100.00
21728;BME280;11026;50.560;17.852;2022-12-07T02:43:05;99124.34;;;0.96;100.00
21728;BME280;11026;50.560;17.852;2022-12-07T02:45:36;99124.22;;;1.05;100.00
21728;BME280;11026;50.560;17.852;2022-12-07T02:48:07;99122.47;;;1.06;100.00
21728;BME280;11026;50.560;17.852;2022-12-07T02:50:35;99120.88;;;0.94;100.00
21728;BME280;11026;50.560;17.852;2022-12-07T02:53:03;99112.97;;;1.02;100.00
21728;BME280;11026;50.560;17.852;2022-12-07T02:55:40;99119.94;;;1.01;100.00
21728;BME280;11026;50.560;17.852;2022-12-07T03:01:42;99114.66;;;1.07;100.00
21728;BME280;11026;50.560;17.852;2022-12-07T03:10:14;99107.72;;;1.06;100.00
21728;BME280;11026;50.560;17.852;2022-12-07T03:12:49;99121.69;;;1.01;100.00
21728;BME280;11026;50.560;17.852;2022-12-07T03:18:07;99112.03;;;1.09;100.00
21728;BME280;11026;50.560;17.852;2022-12-07T03:20:37;99112.97;;;1.05;100.00
21728;BME280;11026;50.560;17.852;2022-12-07T03:23:07;99101.66;;;1.07;100.00
21728;BME280;11026;50.560;17.852;2022-12-07T03:25:45;99099.97;;;1.03;100.00
21728;BME280;11026;50.560;17.852;2022-12-07T03:28:18;99107.81;;;1.00;100.00
21728;BME280;11026;50.560;17.852;2022-12-07T03:31:06;99101.78;;;0.96;100.00
21728;BME280;11026;50.560;17.852;2022-12-07T03:37:05;99102.66;;;0.94;100.00
21728;BME280;11026;50.560;17.852;2022-12-07T03:39:54;99107.94;;;0.89;100.00
21728;BME280;11026;50.560;17.852;2022-12-07T03:42:25;99105.22;;;0.97;100.00
21728;BME280;11026;50.560;17.852;2022-12-07T03:44:53;99107.03;;;0.92;100.00
21728;BME280;11026;50.560;17.852;2022-12-07T03:50:11;99101.00;;;0.87;100.00
21728;BME280;11026;50.560;17.852;2022-12-07T03:53:11;99094.94;;;0.86;100.00
21728;BME280;11026;50.560;17.852;2022-12-07T03:55:43;99098.47;;;0.84;100.00
21728;BME280;11026;50.560;17.852;2022-12-07T03:58:15;99092.41;;;0.80;100.00
21728;BME280;11026;50.560;17.852;2022-12-07T04:00:46;99091.50;;;0.84;100.00
21728;BME280;11026;50.560;17.852;2022-12-07T04:03:13;99093.19;;;0.88;100.00
21728;BME280;11026;50.560;17.852;2022-12-07T04:05:40;99094.88;;;0.91;100.00
21728;BME280;11026;50.560;17.852;2022-12-07T04:08:15;99094.84;;;0.94;100.00
21728;BME280;11026;50.560;17.852;2022-12-07T04:10:45;99098.38;;;0.90;100.00
21728;BME280;11026;50.560;17.852;2022-12-07T04:13:12;99095.69;;;0.94;100.00
21728;BME280;11026;50.560;17.852;2022-12-07T04:15:41;99095.69;;;0.99;100.00
21728;BME280;11026;50.560;17.852;2022-12-07T04:18:08;99087.84;;;0.97;100.00
21728;BME280;11026;50.560;17.852;2022-12-07T04:20:36;99088.63;;;1.06;100.00
21728;BME280;11026;50.560;17.852;2022-12-07T04:23:03;99086.88;;;1.08;100.00
21728;BME280;11026;50.560;17.852;2022-12-07T04:25:32;99092.09;;;1.06;100.00
21728;BME280;11026;50.560;17.852;2022-12-07T04:27:59;99084.25;;;1.09;100.00
21728;BME280;11026;50.560;17.852;2022-12-07T04:30:27;99089.44;;;1.09;100.00
21728;BME280;11026;50.560;17.852;2022-12-07T04:32:54;99089.47;;;1.06;100.00
21728;BME280;11026;50.560;17.852;2022-12-07T04:35:28;99086.81;;;1.11;100.00
21728;BME280;11026;50.560;17.852;2022-12-07T04:37:55;99090.34;;;1.08;100.00
21728;BME280;11026;50.560;17.852;2022-12-07T04:40:23;99089.41;;;1.12;100.00
21728;BME280;11026;50.560;17.852;2022-12-07T04:42:50;99095.56;;;1.07;100.00
21728;BME280;11026;50.560;17.852;2022-12-07T04:45:18;99098.19;;;1.05;100.00
21728;BME280;11026;50.560;17.852;2022-12-07T04:47:49;99103.34;;;1.11;100.00
21728;BME280;11026;50.560;17.852;2022-12-07T04:50:19;99088.59;;;1.09;100.00
21728;BME280;11026;50.560;17.852;2022-12-07T04:52:46;99092.94;;;1.08;100.00
21728;BME280;11026;50.560;17.852;2022-12-07T04:55:13;99092.03;;;1.12;100.00
21728;BME280;11026;50.560;17.852;2022-12-07T04:57:41;99104.94;;;1.18;100.00
21728;BME280;11026;50.560;17.852;2022-12-07T05:00:09;99099.00;;;1.09;100.00
21728;BME280;11026;50.560;17.852;2022-12-07T05:02:36;99092.94;;;1.08;100.00
21728;BME280;11026;50.560;17.852;2022-12-07T05:05:04;99086.94;;;1.02;100.00
21728;BME280;11026;50.560;17.852;2022-12-07T05:07:33;99096.47;;;1.04;100.00
21728;BME280;11026;50.560;17.852;2022-12-07T05:10:02;99082.56;;;1.05;100.00
21728;BME280;11026;50.560;17.852;2022-12-07T05:12:31;99085.09;;;1.10;100.00
21728;BME280;11026;50.560;17.852;2022-12-07T05:14:58;99089.47;;;1.06;100.00
21728;BME280;11026;50.560;17.852;2022-12-07T05:17:26;99080.84;;;1.04;100.00
21728;BME280;11026;50.560;17.852;2022-12-07T05:19:53;99086.94;;;1.02;100.00
21728;BME280;11026;50.560;17.852;2022-12-07T05:22:21;99078.16;;;1.09;100.00
21728;BME280;11026;50.560;17.852;2022-12-07T05:24:48;99083.47;;;1.01;100.00
21728;BME280;11026;50.560;17.852;2022-12-07T05:27:16;99084.34;;;1.03;100.00
21728;BME280;11026;50.560;17.852;2022-12-07T05:29:44;99087.78;;;1.02;100.00
21728;BME280;11026;50.560;17.852;2022-12-07T05:32:12;99098.19;;;1.05;100.00
21728;BME280;11026;50.560;17.852;2022-12-07T05:34:39;99086.97;;;0.98;100.00
21728;BME280;11026;50.560;17.852;2022-12-07T05:37:06;99087.78;;;1.02;100.00
21728;BME280;11026;50.560;17.852;2022-12-07T05:39:34;99090.25;;;1.14;100.00
21728;BME280;11026;50.560;17.852;2022-12-07T05:42:10;99091.22;;;1.07;100.00
21728;BME280;11026;50.560;17.852;2022-12-07T05:44:45;99088.63;;;1.07;100.00
21728;BME280;11026;50.560;17.852;2022-12-07T05:47:14;99091.28;;;1.01;100.00
21728;BME280;11026;50.560;17.852;2022-12-07T05:49:42;99099.97;;;1.03;100.00
21728;BME280;11026;50.560;17.852;2022-12-07T05:52:09;99086.09;;;1.01;100.00
21728;BME280;11026;50.560;17.852;2022-12-07T05:54:39;99092.16;;;1.03;100.00
21728;BME280;11026;50.560;17.852;2022-12-07T05:57:06;99097.38;;;1.00;100.00
21728;BME280;11026;50.560;17.852;2022-12-07T05:59:36;99101.69;;;1.04;100.00
21728;BME280;11026;50.560;17.852;2022-12-07T06:02:09;99096.47;;;1.04;100.00
21728;BME280;11026;50.560;17.852;2022-12-07T06:04:39;99096.28;;;1.18;100.00
21728;BME280;11026;50.560;17.852;2022-12-07T06:07:06;99100.00;;;1.00;100.00
21728;BME280;11026;50.560;17.852;2022-12-07T06:09:34;99111.31;;;0.97;100.00
21728;BME280;11026;50.560;17.852;2022-12-07T06:12:03;99099.88;;;1.09;100.00
21728;BME280;11026;50.560;17.852;2022-12-07T06:14:57;99105.03;;;1.12;100.00
21728;BME280;11026;50.560;17.852;2022-12-07T06:17:27;99110.38;;;1.03;100.00
21728;BME280;11026;50.560;17.852;2022-12-07T06:19:55;99108.72;;;0.96;100.00
21728;BME280;11026;50.560;17.852;2022-12-07T06:22:22;99097.19;;;1.14;100.00
21728;BME280;11026;50.560;17.852;2022-12-07T06:24:49;99094.63;;;1.12;100.00
21728;BME280;11026;50.560;17.852;2022-12-07T06:27:17;99089.38;;;1.15;100.00
21728;BME280;11026;50.560;17.852;2022-12-07T06:29:44;99091.00;;;1.22;100.00
21728;BME280;11026;50.560;17.852;2022-12-07T06:32:12;99085.00;;;1.17;100.00
21728;BME280;11026;50.560;17.852;2022-12-07T06:34:39;99083.25;;;1.18;100.00
21728;BME280;11026;50.560;17.852;2022-12-07T06:37:07;99087.59;;;1.17;100.00
21728;BME280;11026;50.560;17.852;2022-12-07T06:39:34;99092.84;;;1.14;100.00
21728;BME280;11026;50.560;17.852;2022-12-07T06:42:02;99088.41;;;1.24;100.00
21728;BME280;11026;50.560;17.852;2022-12-07T06:44:29;99091.94;;;1.20;100.00
21728;BME280;11026;50.560;17.852;2022-12-07T06:46:57;99092.69;;;1.27;100.00
21728;BME280;11026;50.560;17.852;2022-12-07T06:49:44;99086.63;;;1.26;100.00
21728;BME280;11026;50.560;17.852;2022-12-07T06:52:11;99091.00;;;1.22;100.00
21728;BME280;11026;50.560;17.852;2022-12-07T06:54:38;99097.06;;;1.25;100.00
21728;BME280;11026;50.560;17.852;2022-12-07T06:57:07;99091.78;;;1.29;100.00
21728;BME280;11026;50.560;17.852;2022-12-07T06:59:34;99090.94;;;1.29;100.00
21728;BME280;11026;50.560;17.852;2022-12-07T07:02:02;99090.31;;;1.11;100.00
21728;BME280;11026;50.560;17.852;2022-12-07T07:04:31;99095.38;;;1.20;100.00
21728;BME280;11026;50.560;17.852;2022-12-07T07:06:58;99087.53;;;1.23;100.00
21728;BME280;11026;50.560;17.852;2022-12-07T07:09:26;99097.97;;;1.23;100.00
21728;BME280;11026;50.560;17.852;2022-12-07T07:11:54;99097.81;;;1.33;100.00
21728;BME280;11026;50.560;17.852;2022-12-07T07:14:21;99099.63;;;1.28;100.00
21728;BME280;11026;50.560;17.852;2022-12-07T07:16:51;99094.31;;;1.34;100.00
21728;BME280;11026;50.560;17.852;2022-12-07T07:19:19;99103.09;;;1.27;100.00
21728;BME280;11026;50.560;17.852;2022-12-07T07:21:47;99103.00;;;1.34;100.00
21728;BME280;11026;50.560;17.852;2022-12-07T07:24:14;99099.63;;;1.28;100.00
21728;BME280;11026;50.560;17.852;2022-12-07T07:26:41;99103.94;;;1.30;100.00
21728;BME280;11026;50.560;17.852;2022-12-07T07:29:10;99111.72;;;1.35;100.00
21728;BME280;11026;50.560;17.852;2022-12-07T07:31:37;99113.50;;;1.31;100.00
21728;BME280;11026;50.560;17.852;2022-12-07T07:34:05;99114.31;;;1.35;100.00
21728;BME280;11026;50.560;17.852;2022-12-07T07:36:32;99114.41;;;1.27;100.00
21728;BME280;11026;50.560;17.852;2022-12-07T07:39:00;99120.38;;;1.34;100.00
21728;BME280;11026;50.560;17.852;2022-12-07T07:41:27;99122.00;;;1.44;100.00
21728;BME280;11026;50.560;17.852;2022-12-07T07:43:55;99117.66;;;1.44;100.00
21728;BME280;11026;50.560;17.852;2022-12-07T07:46:22;99118.63;;;1.36;100.00
21728;BME280;11026;50.560;17.852;2022-12-07T07:48:51;99127.22;;;1.44;100.00
21728;BME280;11026;50.560;17.852;2022-12-07T07:51:18;99122.00;;;1.42;100.00
21728;BME280;11026;50.560;17.852;2022-12-07T07:53:46;99123.84;;;1.36;100.00
21728;BME280;11026;50.560;17.852;2022-12-07T07:56:13;99126.28;;;1.46;100.00
21728;BME280;11026;50.560;17.852;2022-12-07T07:58:40;99120.19;;;1.49;100.00
21728;BME280;11026;50.560;17.852;2022-12-07T08:01:08;99116.84;;;1.38;100.00
21728;BME280;11026;50.560;17.852;2022-12-07T08:03:36;99120.28;;;1.43;100.00
21728;BME280;11026;50.560;17.852;2022-12-07T08:06:03;99122.81;;;1.46;100.00
21728;BME280;11026;50.560;17.852;2022-12-07T08:08:31;99117.53;;;1.52;100.00
21728;BME280;11026;50.560;17.852;2022-12-07T08:11:06;99127.06;;;1.53;100.00
21728;BME280;11026;50.560;17.852;2022-12-07T08:13:34;99120.84;;;1.65;100.00
21728;BME280;11026;50.560;17.852;2022-12-07T08:16:06;99122.66;;;1.58;100.00
21728;BME280;11026;50.560;17.852;2022-12-07T08:18:43;99116.50;;;1.62;100.00
21728;BME280;11026;50.560;17.852;2022-12-07T08:21:14;99122.44;;;1.73;100.00
21728;BME280;11026;50.560;17.852;2022-12-07T08:23:42;99114.53;;;1.80;100.00
21728;BME280;11026;50.560;17.852;2022-12-07T08:26:13;99116.22;;;1.84;100.00
21728;BME280;11026;50.560;17.852;2022-12-07T08:28:41;99114.31;;;1.93;100.00
21728;BME280;11026;50.560;17.852;2022-12-07T08:31:13;99112.44;;;2.03;100.00
21728;BME280;11026;50.560;17.852;2022-12-07T08:33:45;99105.41;;;2.07;100.00
21728;BME280;11026;50.560;17.852;2022-12-07T08:36:14;99107.16;;;2.56;100.00
21728;BME280;11026;50.560;17.852;2022-12-07T08:38:42;99099.66;;;2.85;100.00
21728;BME280;11026;50.560;17.852;2022-12-07T08:41:29;99097.22;;;3.58;100.00
21728;BME280;11026;50.560;17.852;2022-12-07T08:43:57;99101.72;;;3.52;100.00
21728;BME280;11026;50.560;17.852;2022-12-07T08:46:34;99111.81;;;3.28;100.00
21728;BME280;11026;50.560;17.852;2022-12-07T08:49:19;99116.97;;;2.89;100.00
21728;BME280;11026;50.560;17.852;2022-12-07T08:51:54;99106.78;;;2.76;100.00
21728;BME280;11026;50.560;17.852;2022-12-07T08:54:22;99103.31;;;2.75;100.00
21728;BME280;11026;50.560;17.852;2022-12-07T08:56:53;99099.28;;;2.59;100.00
21728;BME280;11026;50.560;17.852;2022-12-07T08:59:27;99099.91;;;2.71;100.00
21728;BME280;11026;50.560;17.852;2022-12-07T09:01:56;99108.06;;;2.53;100.00
21728;BME280;11026;50.560;17.852;2022-12-07T09:04:24;99106.22;;;2.60;100.00
21728;BME280;11026;50.560;17.852;2022-12-07T09:06:51;99108.88;;;2.58;100.00
21728;BME280;11026;50.560;17.852;2022-12-07T09:09:19;99100.84;;;2.67;100.00
21728;BME280;11026;50.560;17.852;2022-12-07T09:11:46;99096.94;;;2.88;100.00
21728;BME280;11026;50.560;17.852;2022-12-07T09:14:14;99091.00;;;2.82;100.00
21728;BME280;11026;50.560;17.852;2022-12-07T09:16:41;99093.44;;;2.91;100.00
21728;BME280;11026;50.560;17.852;2022-12-07T09:19:09;99086.34;;;2.96;100.00
21728;BME280;11026;50.560;17.852;2022-12-07T09:21:36;99081.94;;;3.00;100.00
21728;BME280;11026;50.560;17.852;2022-12-07T09:24:04;99072.56;;;2.89;100.00
21728;BME280;11026;50.560;17.852;2022-12-07T09:26:33;99070.56;;;3.02;100.00
21728;BME280;11026;50.560;17.852;2022-12-07T09:29:02;99069.63;;;3.05;100.00
21728;BME280;11026;50.560;17.852;2022-12-07T09:31:30;99067.97;;;3.01;100.00
21728;BME280;11026;50.560;17.852;2022-12-07T09:34:00;99063.97;;;3.63;100.00
21728;BME280;11026;50.560;17.852;2022-12-07T09:36:30;99054.41;;;4.96;100.00
21728;BME280;11026;50.560;17.852;2022-12-07T09:38:58;99059.94;;;6.01;100.00
21728;BME280;11026;50.560;17.852;2022-12-07T09:41:27;99052.38;;;6.43;90.21
21728;BME280;11026;50.560;17.852;2022-12-07T09:44:04;99048.84;;;6.44;85.21
21728;BME280;11026;50.560;17.852;2022-12-07T09:46:36;99059.69;;;6.35;80.02
21728;BME280;11026;50.560;17.852;2022-12-07T09:49:05;99057.41;;;6.49;79.61
21728;BME280;11026;50.560;17.852;2022-12-07T09:51:36;99057.47;;;6.73;78.17
21728;BME280;11026;50.560;17.852;2022-12-07T09:54:05;99044.13;;;6.54;76.81
21728;BME280;11026;50.560;17.852;2022-12-07T09:56:32;99051.16;;;6.78;75.65
21728;BME280;11026;50.560;17.852;2022-12-07T09:59:01;99058.72;;;6.62;74.42
21728;BME280;11026;50.560;17.852;2022-12-07T10:01:31;99038.50;;;6.88;73.86
21728;BME280;11026;50.560;17.852;2022-12-07T10:04:21;99047.41;;;6.84;74.62
21728;BME280;11026;50.560;17.852;2022-12-07T10:06:50;99032.28;;;7.14;73.24
21728;BME280;11026;50.560;17.852;2022-12-07T10:09:21;99029.97;;;7.28;73.03
21728;BME280;11026;50.560;17.852;2022-12-07T10:12:11;99031.03;;;7.90;72.74
21728;BME280;11026;50.560;17.852;2022-12-07T10:14:54;99033.31;;;8.20;71.52
21728;BME280;11026;50.560;17.852;2022-12-07T10:17:39;99028.38;;;8.32;68.31
21728;BME280;11026;50.560;17.852;2022-12-07T10:20:28;99026.47;;;8.77;68.15
21728;BME280;11026;50.560;17.852;2022-12-07T10:23:02;99025.00;;;9.47;68.03
21728;BME280;11026;50.560;17.852;2022-12-07T10:25:35;99018.75;;;9.11;65.62
21728;BME280;11026;50.560;17.852;2022-12-07T10:28:18;99029.91;;;7.96;66.19
21728;BME280;11026;50.560;17.852;2022-12-07T10:31:00;99024.78;;;7.71;66.65
21728;BME280;11026;50.560;17.852;2022-12-07T10:33:38;99035.78;;;6.91;69.90
21728;BME280;11026;50.560;17.852;2022-12-07T10:36:20;99037.47;;;6.44;70.16
21728;BME280;11026;50.560;17.852;2022-12-07T10:38:58;99033.03;;;6.46;72.53
21728;BME280;11026;50.560;17.852;2022-12-07T10:41:27;99017.28;;;7.16;71.90
21728;BME280;11026;50.560;17.852;2022-12-07T10:43:57;99019.53;;;7.93;70.73
21728;BME280;11026;50.560;17.852;2022-12-07T10:47:32;99025.78;;;7.46;68.16
21728;BME280;11026;50.560;17.852;2022-12-07T10:55:22;99021.47;;;6.26;70.52
21728;BME280;11026;50.560;17.852;2022-12-07T11:15:56;99024.50;;;4.41;78.18
21728;BME280;11026;50.560;17.852;2022-12-07T11:24:02;99025.31;;;4.43;79.40
21728;BME280;11026;50.560;17.852;2022-12-07T11:26:57;99023.13;;;4.28;78.59
21728;BME280;11026;50.560;17.852;2022-12-07T11:37:56;99004.53;;;4.37;78.99
21728;BME280;11026;50.560;17.852;2022-12-07T11:40:29;98994.00;;;4.40;79.29
21728;BME280;11026;50.560;17.852;2022-12-07T11:43:01;98988.56;;;4.46;78.70
21728;BME280;11026;50.560;17.852;2022-12-07T11:45:33;98984.19;;;4.47;76.30
21728;BME280;11026;50.560;17.852;2022-12-07T11:48:05;98982.38;;;4.17;76.07
21728;BME280;11026;50.560;17.852;2022-12-07T11:50:41;98978.91;;;4.15;77.27
21728;BME280;11026;50.560;17.852;2022-12-07T11:53:22;98985.25;;;4.08;77.43
21728;BME280;11026;50.560;17.852;2022-12-07T11:56:10;98985.53;;;3.98;77.96
21728;BME280;11026;50.560;17.852;2022-12-07T11:58:57;98972.38;;;3.99;77.62
21728;BME280;11026;50.560;17.852;2022-12-07T12:06:38;98974.31;;;4.25;76.17
21728;BME280;11026;50.560;17.852;2022-12-07T12:09:27;98973.94;;;4.06;76.63
21728;BME280;11026;50.560;17.852;2022-12-07T12:18:21;98977.44;;;3.73;79.62
21728;BME280;11026;50.560;17.852;2022-12-07T12:20:57;98985.50;;;3.63;79.94
21728;BME280;11026;50.560;17.852;2022-12-07T12:26:36;98981.53;;;3.47;81.31
21728;BME280;11026;50.560;17.852;2022-12-07T12:29:06;98975.59;;;3.40;82.85
21728;BME280;11026;50.560;17.852;2022-12-07T12:31:47;98976.19;;;3.53;83.32
21728;BME280;11026;50.560;17.852;2022-12-07T12:34:59;98976.50;;;3.39;83.85
21728;BME280;11026;50.560;17.852;2022-12-07T12:42:52;98962.69;;;3.34;84.65
21728;BME280;11026;50.560;17.852;2022-12-07T12:45:31;98965.41;;;3.30;85.22
21728;BME280;11026;50.560;17.852;2022-12-07T12:48:03;98958.31;;;3.35;85.22
21728;BME280;11026;50.560;17.852;2022-12-07T12:50:37;98954.03;;;3.31;85.08
21728;BME280;11026;50.560;17.852;2022-12-07T12:53:26;98956.53;;;3.37;84.64
21728;BME280;11026;50.560;17.852;2022-12-07T12:56:15;98956.28;;;3.46;83.92
21728;BME280;11026;50.560;17.852;2022-12-07T12:58:47;98967.00;;;3.37;83.12
21728;BME280;11026;50.560;17.852;2022-12-07T13:01:38;98966.09;;;3.36;82.53
21728;BME280;11026;50.560;17.852;2022-12-07T13:04:23;98962.72;;;3.33;83.88
21728;BME280;11026;50.560;17.852;2022-12-07T13:06:51;98969.84;;;3.26;83.78
21728;BME280;11026;50.560;17.852;2022-12-07T13:09:34;98973.94;;;3.38;83.73
21728;BME280;11026;50.560;17.852;2022-12-07T13:12:19;98974.00;;;3.35;83.63
21728;BME280;11026;50.560;17.852;2022-12-07T13:14:56;98973.88;;;3.41;82.64
21728;BME280;11026;50.560;17.852;2022-12-07T13:20:07;98980.81;;;3.42;83.78
21728;BME280;11026;50.560;17.852;2022-12-07T13:22:44;98981.41;;;3.53;82.44
21728;BME280;11026;50.560;17.852;2022-12-07T13:25:35;98991.03;;;3.51;82.68
21728;BME280;11026;50.560;17.852;2022-12-07T13:28:25;98988.41;;;3.53;81.97
21728;BME280;11026;50.560;17.852;2022-12-07T13:33:45;99002.69;;;3.38;82.32
21728;BME280;11026;50.560;17.852;2022-12-07T13:36:34;99001.84;;;3.37;81.32
21728;BME280;11026;50.560;17.852;2022-12-07T13:39:18;98996.72;;;3.33;81.98
21728;BME280;11026;50.560;17.852;2022-12-07T13:41:50;99006.41;;;3.28;82.99
21728;BME280;11026;50.560;17.852;2022-12-07T13:44:34;99014.91;;;3.37;83.64
21728;BME280;11026;50.560;17.852;2022-12-07T13:47:30;99019.19;;;3.40;82.74
21728;BME280;11026;50.560;17.852;2022-12-07T13:49:58;99000.00;;;3.41;82.60
21728;BME280;11026;50.560;17.852;2022-12-07T13:52:28;99007.06;;;3.36;82.41
21728;BME280;11026;50.560;17.852;2022-12-07T13:57:35;99003.78;;;3.28;82.77
21728;BME280;11026;50.560;17.852;2022-12-07T14:00:05;99006.28;;;3.34;82.84
21728;BME280;11026;50.560;17.852;2022-12-07T14:05:33;99002.78;;;3.33;82.37
21728;BME280;11026;50.560;17.852;2022-12-07T14:10:34;99006.38;;;3.29;82.14
21728;BME280;11026;50.560;17.852;2022-12-07T14:16:41;99005.59;;;3.26;82.52
21728;BME280;11026;50.560;17.852;2022-12-07T14:22:09;99013.50;;;3.23;82.01
21728;BME280;11026;50.560;17.852;2022-12-07T14:24:45;99019.69;;;3.18;81.66
21728;BME280;11026;50.560;17.852;2022-12-07T14:27:32;99012.53;;;3.27;81.36
21728;BME280;11026;50.560;17.852;2022-12-07T14:30:04;99002.19;;;3.20;81.07
21728;BME280;11026;50.560;17.852;2022-12-07T14:32:35;99004.75;;;3.24;81.35
21728;BME280;11026;50.560;17.852;2022-12-07T14:35:12;99003.84;;;3.25;81.64
21728;BME280;11026;50.560;17.852;2022-12-07T14:37:44;99014.47;;;3.18;82.55
21728;BME280;11026;50.560;17.852;2022-12-07T14:40:20;98998.84;;;3.15;82.39
21728;BME280;11026;50.560;17.852;2022-12-07T14:42:51;99007.63;;;3.11;82.52
21728;BME280;11026;50.560;17.852;2022-12-07T14:45:31;98997.34;;;3.05;83.35
21728;BME280;11026;50.560;17.852;2022-12-07T14:47:59;99007.78;;;3.05;82.98
21728;BME280;11026;50.560;17.852;2022-12-07T14:50:52;99000.75;;;3.07;82.63
21728;BME280;11026;50.560;17.852;2022-12-07T14:53:44;99005.97;;;3.07;82.24
21728;BME280;11026;50.560;17.852;2022-12-07T14:56:18;99000.13;;;2.96;82.31
21728;BME280;11026;50.560;17.852;2022-12-07T14:58:46;98997.78;;;2.84;83.51
21728;BME280;11026;50.560;17.852;2022-12-07T15:01:15;99001.41;;;2.77;83.65
21728;BME280;11026;50.560;17.852;2022-12-07T15:03:42;99002.16;;;2.83;83.78
21728;BME280;11026;50.560;17.852;2022-12-07T15:06:18;98998.72;;;2.81;83.83
21728;BME280;11026;50.560;17.852;2022-12-07T15:08:45;99011.00;;;2.76;83.60
21728;BME280;11026;50.560;17.852;2022-12-07T15:11:17;98999.69;;;2.76;84.25
21728;BME280;11026;50.560;17.852;2022-12-07T15:13:45;98999.75;;;2.72;84.62